sensor_id;sensor_type;location;lat;lon;timestamp;pressure;altitude;pressure_sealevel;temperature;humidity
7376;BME280;3728;42.266;24.944;2023-05-07T00:01:32;99874.06;;;16.21;88.33
7376;BME280;3728;42.266;24.944;2023-05-07T00:03:59;99869.13;;;15.87;89.77
7376;BME280;3728;42.266;24.944;2023-05-07T00:06:27;99868.22;;;15.70;91.39
7376;BME280;3728;42.266;24.944;2023-05-07T00:08:56;99871.34;;;15.85;91.04
7376;BME280;3728;42.266;24.944;2023-05-07T00:11:25;99868.66;;;15.72;91.17
7376;BME280;3728;42.266;24.944;2023-05-07T00:13:53;99869.69;;;15.59;90.07
7376;BME280;3728;42.266;24.944;2023-05-07T00:16:21;99868.78;;;15.55;90.36
7376;BME280;3728;42.266;24.944;2023-05-07T00:18:49;99870.25;;;15.65;90.30
7376;BME280;3728;42.266;24.944;2023-05-07T00:21:17;99860.78;;;15.64;90.57
7376;BME280;3728;42.266;24.944;2023-05-07T00:23:45;99870.72;;;15.67;90.93
7376;BME280;3728;42.266;24.944;2023-05-07T00:26:12;99866.44;;;15.74;90.71
7376;BME280;3728;42.266;24.944;2023-05-07T00:28:42;99860.94;;;15.67;91.09
7376;BME280;3728;42.266;24.944;2023-05-07T00:31:09;99865.28;;;15.84;90.62
7376;BME280;3728;42.266;24.944;2023-05-07T00:33:38;99859.66;;;15.86;90.29
7376;BME280;3728;42.266;24.944;2023-05-07T00:36:06;99855.94;;;15.87;90.39
7376;BME280;3728;42.266;24.944;2023-05-07T00:38:33;99859.44;;;15.91;89.86
7376;BME280;3728;42.266;24.944;2023-05-07T00:41:01;99857.16;;;15.89;89.42
7376;BME280;3728;42.266;24.944;2023-05-07T00:43:29;99857.22;;;15.81;89.16
7376;BME280;3728;42.266;24.944;2023-05-07T00:45:59;99857.88;;;15.78;89.33
7376;BME280;3728;42.266;24.944;2023-05-07T00:48:27;99859.97;;;15.51;90.35
7376;BME280;3728;42.266;24.944;2023-05-07T00:50:56;99860.88;;;15.55;90.86
7376;BME280;3728;42.266;24.944;2023-05-07T00:53:24;99862.72;;;15.55;90.33
7376;BME280;3728;42.266;24.944;2023-05-07T00:55:53;99861.06;;;15.50;91.27
7376;BME280;3728;42.266;24.944;2023-05-07T00:58:21;99860.75;;;15.52;90.63
7376;BME280;3728;42.266;24.944;2023-05-07T01:00:49;99868.16;;;15.38;91.64
7376;BME280;3728;42.266;24.944;2023-05-07T01:03:16;99869.03;;;15.21;92.51
7376;BME280;3728;42.266;24.944;2023-05-07T01:05:45;99872.31;;;15.18;93.70
7376;BME280;3728;42.266;24.944;2023-05-07T01:08:15;99870.53;;;15.31;93.08
7376;BME280;3728;42.266;24.944;2023-05-07T01:10:44;99865.81;;;15.16;93.17
7376;BME280;3728;42.266;24.944;2023-05-07T01:13:12;99859.63;;;15.12;93.60
7376;BME280;3728;42.266;24.944;2023-05-07T01:15:42;99867.63;;;15.24;93.87
7376;BME280;3728;42.266;24.944;2023-05-07T01:18:13;99851.63;;;15.41;92.77
7376;BME280;3728;42.266;24.944;2023-05-07T01:20:42;99859.00;;;15.35;93.12
7376;BME280;3728;42.266;24.944;2023-05-07T01:23:11;99857.69;;;15.41;92.65
7376;BME280;3728;42.266;24.944;2023-05-07T01:25:39;99855.00;;;15.29;92.73
7376;BME280;3728;42.266;24.944;2023-05-07T01:28:07;99855.50;;;15.02;94.01
7376;BME280;3728;42.266;24.944;2023-05-07T01:30:46;99857.19;;;15.06;94.25
7376;BME280;3728;42.266;24.944;2023-05-07T01:33:23;99862.56;;;15.10;94.53
7376;BME280;3728;42.266;24.944;2023-05-07T01:35:53;99860.13;;;15.05;94.44
7376;BME280;3728;42.266;24.944;2023-05-07T01:38:21;99861.56;;;15.02;94.83
7376;BME280;3728;42.266;24.944;2023-05-07T01:40:50;99864.88;;;14.91;95.69
7376;BME280;3728;42.266;24.944;2023-05-07T01:43:19;99857.69;;;15.00;95.38
7376;BME280;3728;42.266;24.944;2023-05-07T01:45:46;99861.16;;;15.13;94.53
7376;BME280;3728;42.266;24.944;2023-05-07T01:48:16;99863.09;;;15.03;94.60
7376;BME280;3728;42.266;24.944;2023-05-07T01:50:45;99862.06;;;14.96;94.93
7376;BME280;3728;42.266;24.944;2023-05-07T01:53:14;99861.59;;;14.94;95.64
7376;BME280;3728;42.266;24.944;2023-05-07T01:55:42;99855.78;;;14.80;96.41
7376;BME280;3728;42.266;24.944;2023-05-07T01:58:09;99859.06;;;14.77;96.53
7376;BME280;3728;42.266;24.944;2023-05-07T02:00:37;99854.56;;;14.77;96.39
7376;BME280;3728;42.266;24.944;2023-05-07T02:03:07;99844.66;;;14.74;97.12
7376;BME280;3728;42.266;24.944;2023-05-07T02:05:48;99842.75;;;14.83;96.55
7376;BME280;3728;42.266;24.944;2023-05-07T02:08:37;99840.19;;;14.66;96.97
7376;BME280;3728;42.266;24.944;2023-05-07T02:11:04;99839.78;;;14.56;98.49
7376;BME280;3728;42.266;24.944;2023-05-07T02:13:34;99834.50;;;14.56;99.02
7376;BME280;3728;42.266;24.944;2023-05-07T02:16:03;99830.19;;;14.51;98.93
7376;BME280;3728;42.266;24.944;2023-05-07T02:18:31;99834.84;;;14.54;99.69
7376;BME280;3728;42.266;24.944;2023-05-07T02:20:59;99829.00;;;14.40;100.00
7376;BME280;3728;42.266;24.944;2023-05-07T02:23:26;99826.94;;;14.54;99.91
7376;BME280;3728;42.266;24.944;2023-05-07T02:25:54;99835.47;;;14.51;100.00
7376;BME280;3728;42.266;24.944;2023-05-07T02:28:21;99829.66;;;14.28;100.00
7376;BME280;3728;42.266;24.944;2023-05-07T02:30:58;99835.56;;;14.34;100.00
7376;BME280;3728;42.266;24.944;2023-05-07T02:33:27;99830.72;;;14.27;100.00
7376;BME280;3728;42.266;24.944;2023-05-07T02:35:55;99826.28;;;14.11;100.00
7376;BME280;3728;42.266;24.944;2023-05-07T02:38:23;99826.00;;;14.04;100.00
7376;BME280;3728;42.266;24.944;2023-05-07T02:40:50;99824.25;;;14.16;100.00
7376;BME280;3728;42.266;24.944;2023-05-07T02:43:18;99818.09;;;14.12;100.00
7376;BME280;3728;42.266;24.944;2023-05-07T02:45:47;99818.69;;;14.18;100.00
7376;BME280;3728;42.266;24.944;2023-05-07T02:48:15;99816.84;;;14.10;100.00
7376;BME280;3728;42.266;24.944;2023-05-07T02:50:43;99820.13;;;14.07;100.00
7376;BME280;3728;42.266;24.944;2023-05-07T02:53:12;99805.88;;;14.08;100.00
7376;BME280;3728;42.266;24.944;2023-05-07T02:55:40;99814.72;;;14.03;100.00
7376;BME280;3728;42.266;24.944;2023-05-07T02:58:07;99812.09;;;13.95;100.00
7376;BME280;3728;42.266;24.944;2023-05-07T03:00:37;99810.84;;;14.01;100.00
7376;BME280;3728;42.266;24.944;2023-05-07T03:03:14;99800.81;;;13.94;100.00
7376;BME280;3728;42.266;24.944;2023-05-07T03:05:42;99811.16;;;13.99;100.00
7376;BME280;3728;42.266;24.944;2023-05-07T03:08:10;99810.19;;;14.04;100.00
7376;BME280;3728;42.266;24.944;2023-05-07T03:10:37;99800.88;;;14.15;100.00
7376;BME280;3728;42.266;24.944;2023-05-07T03:13:08;99799.78;;;14.16;100.00
7376;BME280;3728;42.266;24.944;2023-05-07T03:15:35;99800.59;;;14.08;100.00
7376;BME280;3728;42.266;24.944;2023-05-07T03:18:03;99806.03;;;14.03;100.00
7376;BME280;3728;42.266;24.944;2023-05-07T03:20:31;99800.00;;;14.02;100.00
7376;BME280;3728;42.266;24.944;2023-05-07T03:22:59;99805.25;;;14.02;100.00
7376;BME280;3728;42.266;24.944;2023-05-07T03:25:27;99803.25;;;14.08;100.00
7376;BME280;3728;42.266;24.944;2023-05-07T03:27:56;99802.28;;;14.12;100.00
7376;BME280;3728;42.266;24.944;2023-05-07T03:30:31;99807.28;;;14.05;100.00
7376;BME280;3728;42.266;24.944;2023-05-07T03:32:58;99799.09;;;13.98;100.00
7376;BME280;3728;42.266;24.944;2023-05-07T03:35:26;99807.31;;;13.88;100.00
7376;BME280;3728;42.266;24.944;2023-05-07T03:37:54;99806.41;;;13.84;100.00
7376;BME280;3728;42.266;24.944;2023-05-07T03:40:22;99811.50;;;13.89;100.00
7376;BME280;3728;42.266;24.944;2023-05-07T03:42:52;99811.06;;;13.87;100.00
7376;BME280;3728;42.266;24.944;2023-05-07T03:45:23;99812.75;;;13.92;100.00
7376;BME280;3728;42.266;24.944;2023-05-07T03:47:59;99810.09;;;13.92;100.00
7376;BME280;3728;42.266;24.944;2023-05-07T03:50:27;99815.53;;;13.87;100.00
7376;BME280;3728;42.266;24.944;2023-05-07T03:52:57;99812.75;;;13.83;100.00
7376;BME280;3728;42.266;24.944;2023-05-07T03:55:26;99820.34;;;13.85;100.00
7376;BME280;3728;42.266;24.944;2023-05-07T03:57:57;99820.78;;;13.95;100.00
7376;BME280;3728;42.266;24.944;2023-05-07T04:00:26;99824.03;;;14.01;100.00
7376;BME280;3728;42.266;24.944;2023-05-07T04:03:01;99824.78;;;14.01;100.00
7376;BME280;3728;42.266;24.944;2023-05-07T04:05:31;99828.91;;;14.19;100.00
7376;BME280;3728;42.266;24.944;2023-05-07T04:08:01;99825.47;;;14.27;100.00
7376;BME280;3728;42.266;24.944;2023-05-07T04:10:38;99827.59;;;14.43;100.00
7376;BME280;3728;42.266;24.944;2023-05-07T04:13:09;99833.00;;;14.46;100.00
7376;BME280;3728;42.266;24.944;2023-05-07T04:15:37;99827.66;;;14.63;98.31
7376;BME280;3728;42.266;24.944;2023-05-07T04:18:08;99834.16;;;14.95;95.21
7376;BME280;3728;42.266;24.944;2023-05-07T04:20:37;99832.66;;;14.56;96.47
7376;BME280;3728;42.266;24.944;2023-05-07T04:23:08;99827.44;;;14.48;97.08
7376;BME280;3728;42.266;24.944;2023-05-07T04:25:36;99831.50;;;14.28;99.54
7376;BME280;3728;42.266;24.944;2023-05-07T04:28:18;99825.66;;;14.31;100.00
7376;BME280;3728;42.266;24.944;2023-05-07T04:30:46;99829.28;;;14.47;100.00
7376;BME280;3728;42.266;24.944;2023-05-07T04:33:14;99832.81;;;14.51;100.00
7376;BME280;3728;42.266;24.944;2023-05-07T04:35:46;99839.78;;;14.56;100.00
7376;BME280;3728;42.266;24.944;2023-05-07T04:38:14;99834.97;;;14.58;100.00
7376;BME280;3728;42.266;24.944;2023-05-07T04:40:42;99829.75;;;14.78;99.71
7376;BME280;3728;42.266;24.944;2023-05-07T04:43:13;99838.38;;;15.08;98.33
7376;BME280;3728;42.266;24.944;2023-05-07T04:45:46;99828.03;;;15.24;96.03
7376;BME280;3728;42.266;24.944;2023-05-07T04:48:16;99840.91;;;15.04;97.09
7376;BME280;3728;42.266;24.944;2023-05-07T04:50:49;99844.00;;;15.06;98.63
7376;BME280;3728;42.266;24.944;2023-05-07T04:53:19;99843.94;;;15.15;97.53
7376;BME280;3728;42.266;24.944;2023-05-07T04:55:57;99849.72;;;15.29;97.00
7376;BME280;3728;42.266;24.944;2023-05-07T04:58:31;99841.88;;;15.41;96.49
7376;BME280;3728;42.266;24.944;2023-05-07T05:00:59;99843.69;;;15.49;95.84
7376;BME280;3728;42.266;24.944;2023-05-07T05:03:27;99845.47;;;15.57;95.33
7376;BME280;3728;42.266;24.944;2023-05-07T05:05:56;99851.97;;;15.60;95.04
7376;BME280;3728;42.266;24.944;2023-05-07T05:08:30;99848.94;;;15.70;94.66
7376;BME280;3728;42.266;24.944;2023-05-07T05:11:01;99847.56;;;15.85;94.37
7376;BME280;3728;42.266;24.944;2023-05-07T05:13:31;99847.69;;;16.00;93.08
7376;BME280;3728;42.266;24.944;2023-05-07T05:16:02;99851.25;;;16.16;92.50
7376;BME280;3728;42.266;24.944;2023-05-07T05:18:32;99854.81;;;16.44;89.96
7376;BME280;3728;42.266;24.944;2023-05-07T05:20:59;99862.72;;;16.44;89.60
7376;BME280;3728;42.266;24.944;2023-05-07T05:23:28;99857.59;;;16.72;88.09
7376;BME280;3728;42.266;24.944;2023-05-07T05:25:57;99866.41;;;16.88;87.84
7376;BME280;3728;42.266;24.944;2023-05-07T05:28:28;99860.16;;;17.21;85.35
7376;BME280;3728;42.266;24.944;2023-05-07T05:30:56;99867.03;;;17.49;83.45
7376;BME280;3728;42.266;24.944;2023-05-07T05:33:26;99865.84;;;17.74;81.99
7376;BME280;3728;42.266;24.944;2023-05-07T05:35:59;99865.03;;;17.86;81.34
7376;BME280;3728;42.266;24.944;2023-05-07T05:38:29;99875.34;;;17.75;81.44
7376;BME280;3728;42.266;24.944;2023-05-07T05:40:57;99877.13;;;17.71;83.32
7376;BME280;3728;42.266;24.944;2023-05-07T05:43:28;99879.03;;;17.71;84.04
7376;BME280;3728;42.266;24.944;2023-05-07T05:45:56;99877.41;;;17.82;85.48
7376;BME280;3728;42.266;24.944;2023-05-07T05:48:24;99887.63;;;18.11;81.81
7376;BME280;3728;42.266;24.944;2023-05-07T05:50:52;99882.69;;;18.41;80.03
7376;BME280;3728;42.266;24.944;2023-05-07T05:53:20;99884.91;;;18.23;80.39
7376;BME280;3728;42.266;24.944;2023-05-07T05:55:48;99887.13;;;18.21;80.94
7376;BME280;3728;42.266;24.944;2023-05-07T05:58:16;99885.94;;;18.19;80.71
7376;BME280;3728;42.266;24.944;2023-05-07T06:00:50;99883.75;;;19.02;79.93
7376;BME280;3728;42.266;24.944;2023-05-07T06:03:26;99883.53;;;18.92;78.15
7376;BME280;3728;42.266;24.944;2023-05-07T06:05:55;99889.44;;;19.20;76.07
7376;BME280;3728;42.266;24.944;2023-05-07T06:08:22;99892.97;;;19.24;73.75
7376;BME280;3728;42.266;24.944;2023-05-07T06:10:50;99885.72;;;19.05;75.14
7376;BME280;3728;42.266;24.944;2023-05-07T06:13:18;99892.22;;;19.08;74.80
7376;BME280;3728;42.266;24.944;2023-05-07T06:15:46;99897.47;;;19.58;71.59
7376;BME280;3728;42.266;24.944;2023-05-07T06:18:13;99895.03;;;19.15;72.43
7376;BME280;3728;42.266;24.944;2023-05-07T06:20:41;99897.97;;;19.10;72.57
7376;BME280;3728;42.266;24.944;2023-05-07T06:23:16;99893.28;;;19.38;68.17
7376;BME280;3728;42.266;24.944;2023-05-07T06:25:50;99894.38;;;19.37;70.22
7376;BME280;3728;42.266;24.944;2023-05-07T06:28:21;99888.66;;;19.73;68.36
7376;BME280;3728;42.266;24.944;2023-05-07T06:30:50;99891.75;;;19.75;66.01
7376;BME280;3728;42.266;24.944;2023-05-07T06:33:20;99894.94;;;19.65;65.74
7376;BME280;3728;42.266;24.944;2023-05-07T06:35:50;99892.97;;;19.82;65.95
7376;BME280;3728;42.266;24.944;2023-05-07T06:38:18;99893.34;;;19.80;65.51
7376;BME280;3728;42.266;24.944;2023-05-07T06:40:49;99887.78;;;20.30;63.59
7376;BME280;3728;42.266;24.944;2023-05-07T06:43:17;99888.75;;;20.00;63.06
7376;BME280;3728;42.266;24.944;2023-05-07T06:45:54;99889.09;;;19.75;66.38
7376;BME280;3728;42.266;24.944;2023-05-07T06:48:21;99886.69;;;19.90;64.76
7376;BME280;3728;42.266;24.944;2023-05-07T06:50:56;99883.94;;;20.28;60.86
7376;BME280;3728;42.266;24.944;2023-05-07T06:53:25;99888.47;;;20.05;63.44
7376;BME280;3728;42.266;24.944;2023-05-07T06:55:54;99882.06;;;20.09;66.87
7376;BME280;3728;42.266;24.944;2023-05-07T06:58:22;99882.50;;;20.11;66.72
7376;BME280;3728;42.266;24.944;2023-05-07T07:00:51;99883.19;;;20.76;60.44
7376;BME280;3728;42.266;24.944;2023-05-07T07:03:19;99890.31;;;20.95;59.26
7376;BME280;3728;42.266;24.944;2023-05-07T07:05:51;99881.22;;;20.99;58.92
7376;BME280;3728;42.266;24.944;2023-05-07T07:08:20;99887.88;;;21.09;57.12
7376;BME280;3728;42.266;24.944;2023-05-07T07:10:48;99889.19;;;20.96;57.67
7376;BME280;3728;42.266;24.944;2023-05-07T07:13:16;99891.75;;;20.89;57.67
7376;BME280;3728;42.266;24.944;2023-05-07T07:15:45;99896.00;;;20.93;56.75
7376;BME280;3728;42.266;24.944;2023-05-07T07:18:13;99890.22;;;21.14;54.59
7376;BME280;3728;42.266;24.944;2023-05-07T07:20:42;99890.72;;;20.97;54.88
7376;BME280;3728;42.266;24.944;2023-05-07T07:23:12;99890.59;;;21.46;54.70
7376;BME280;3728;42.266;24.944;2023-05-07T07:25:40;99902.66;;;21.36;55.47
7376;BME280;3728;42.266;24.944;2023-05-07T07:28:09;99896.81;;;20.97;56.56
7376;BME280;3728;42.266;24.944;2023-05-07T07:30:38;99892.00;;;21.06;56.50
7376;BME280;3728;42.266;24.944;2023-05-07T07:33:06;99895.53;;;21.44;55.77
7376;BME280;3728;42.266;24.944;2023-05-07T07:35:36;99891.38;;;21.79;55.66
7376;BME280;3728;42.266;24.944;2023-05-07T07:38:05;99894.28;;;22.01;54.63
7376;BME280;3728;42.266;24.944;2023-05-07T07:40:36;99890.97;;;22.14;53.38
7376;BME280;3728;42.266;24.944;2023-05-07T07:43:08;99886.41;;;21.78;55.62
7376;BME280;3728;42.266;24.944;2023-05-07T07:45:36;99893.50;;;22.00;54.27
7376;BME280;3728;42.266;24.944;2023-05-07T07:48:06;99892.25;;;22.27;53.01
7376;BME280;3728;42.266;24.944;2023-05-07T07:50:36;99899.31;;;22.09;55.11
7376;BME280;3728;42.266;24.944;2023-05-07T07:53:17;99903.59;;;22.61;52.50
7376;BME280;3728;42.266;24.944;2023-05-07T07:55:45;99897.78;;;22.48;51.55
7376;BME280;3728;42.266;24.944;2023-05-07T07:58:15;99893.53;;;22.44;52.08
7376;BME280;3728;42.266;24.944;2023-05-07T08:00:43;99906.41;;;22.82;49.96
7376;BME280;3728;42.266;24.944;2023-05-07T08:03:12;99901.88;;;22.90;50.63
7376;BME280;3728;42.266;24.944;2023-05-07T08:05:44;99899.91;;;22.73;50.50
7376;BME280;3728;42.266;24.944;2023-05-07T08:08:12;99896.06;;;22.74;50.68
7376;BME280;3728;42.266;24.944;2023-05-07T08:10:41;99893.56;;;22.47;51.95
7376;BME280;3728;42.266;24.944;2023-05-07T08:13:18;99910.84;;;23.19;50.24
7376;BME280;3728;42.266;24.944;2023-05-07T08:15:46;99900.53;;;23.17;48.79
7376;BME280;3728;42.266;24.944;2023-05-07T08:18:16;99903.94;;;23.14;47.45
7376;BME280;3728;42.266;24.944;2023-05-07T08:20:45;99898.38;;;23.40;45.17
7376;BME280;3728;42.266;24.944;2023-05-07T08:23:17;99896.31;;;23.12;47.08
7376;BME280;3728;42.266;24.944;2023-05-07T08:25:45;99889.00;;;23.06;46.97
7376;BME280;3728;42.266;24.944;2023-05-07T08:28:14;99896.00;;;23.25;46.16
7376;BME280;3728;42.266;24.944;2023-05-07T08:30:42;99895.31;;;23.38;46.12
7376;BME280;3728;42.266;24.944;2023-05-07T08:33:10;99896.47;;;23.41;45.09
7376;BME280;3728;42.266;24.944;2023-05-07T08:35:38;99892.88;;;23.15;47.21
7376;BME280;3728;42.266;24.944;2023-05-07T08:38:07;99888.03;;;23.35;45.61
7376;BME280;3728;42.266;24.944;2023-05-07T08:40:38;99886.19;;;23.53;45.43
7376;BME280;3728;42.266;24.944;2023-05-07T08:43:13;99893.16;;;23.93;43.21
7376;BME280;3728;42.266;24.944;2023-05-07T08:45:45;99885.16;;;24.04;43.44
7376;BME280;3728;42.266;24.944;2023-05-07T08:48:16;99889.03;;;24.34;43.57
7376;BME280;3728;42.266;24.944;2023-05-07T08:50:52;99882.50;;;24.78;41.62
7376;BME280;3728;42.266;24.944;2023-05-07T08:53:21;99873.72;;;24.60;41.63
7376;BME280;3728;42.266;24.944;2023-05-07T08:55:50;99881.75;;;24.67;41.79
7376;BME280;3728;42.266;24.944;2023-05-07T08:58:19;99876.75;;;24.90;40.71
7376;BME280;3728;42.266;24.944;2023-05-07T09:00:47;99877.16;;;24.67;42.75
7376;BME280;3728;42.266;24.944;2023-05-07T09:03:15;99868.38;;;24.63;43.98
7376;BME280;3728;42.266;24.944;2023-05-07T09:05:47;99869.88;;;24.64;43.05
7376;BME280;3728;42.266;24.944;2023-05-07T09:08:17;99873.72;;;24.45;43.29
7376;BME280;3728;42.266;24.944;2023-05-07T09:10:48;99876.44;;;24.42;43.28
7376;BME280;3728;42.266;24.944;2023-05-07T09:13:19;99878.72;;;24.29;42.30
7376;BME280;3728;42.266;24.944;2023-05-07T09:15:48;99865.69;;;24.63;42.20
7376;BME280;3728;42.266;24.944;2023-05-07T09:18:17;99867.19;;;24.71;39.51
7376;BME280;3728;42.266;24.944;2023-05-07T09:20:46;99865.31;;;24.54;41.86
7376;BME280;3728;42.266;24.944;2023-05-07T09:23:18;99862.63;;;24.68;41.53
7376;BME280;3728;42.266;24.944;2023-05-07T09:25:46;99865.69;;;24.77;42.35
7376;BME280;3728;42.266;24.944;2023-05-07T09:28:20;99862.44;;;25.46;38.65
7376;BME280;3728;42.266;24.944;2023-05-07T09:30:49;99854.16;;;24.87;39.99
7376;BME280;3728;42.266;24.944;2023-05-07T09:33:18;99856.50;;;24.78;40.89
7376;BME280;3728;42.266;24.944;2023-05-07T09:36:09;99852.59;;;25.07;39.13
7376;BME280;3728;42.266;24.944;2023-05-07T09:38:59;99853.72;;;25.10;38.84
7376;BME280;3728;42.266;24.944;2023-05-07T09:41:30;99851.44;;;25.05;40.18
7376;BME280;3728;42.266;24.944;2023-05-07T09:44:13;99848.41;;;25.03;40.53
7376;BME280;3728;42.266;24.944;2023-05-07T09:46:53;99852.94;;;25.20;38.12
7376;BME280;3728;42.266;24.944;2023-05-07T09:49:29;99844.25;;;24.77;40.10
7376;BME280;3728;42.266;24.944;2023-05-07T09:52:05;99848.03;;;24.97;39.81
7376;BME280;3728;42.266;24.944;2023-05-07T09:54:40;99847.84;;;25.47;39.42
7376;BME280;3728;42.266;24.944;2023-05-07T09:57:11;99837.09;;;25.50;38.99
7376;BME280;3728;42.266;24.944;2023-05-07T09:59:42;99837.13;;;25.47;38.69
7376;BME280;3728;42.266;24.944;2023-05-07T10:02:14;99834.81;;;25.42;39.73
7376;BME280;3728;42.266;24.944;2023-05-07T10:04:48;99835.34;;;25.88;38.35
7376;BME280;3728;42.266;24.944;2023-05-07T10:07:21;99828.41;;;25.91;38.62
7376;BME280;3728;42.266;24.944;2023-05-07T10:09:55;99832.69;;;26.32;37.77
7376;BME280;3728;42.266;24.944;2023-05-07T10:12:32;99821.41;;;26.04;36.84
7376;BME280;3728;42.266;24.944;2023-05-07T10:15:13;99821.72;;;26.16;37.58
7376;BME280;3728;42.266;24.944;2023-05-07T10:17:45;99818.84;;;26.37;37.67
7376;BME280;3728;42.266;24.944;2023-05-07T10:20:15;99816.97;;;26.31;37.34
7376;BME280;3728;42.266;24.944;2023-05-07T10:22:47;99817.16;;;26.51;37.56
7376;BME280;3728;42.266;24.944;2023-05-07T10:25:23;99816.31;;;26.61;37.42
7376;BME280;3728;42.266;24.944;2023-05-07T10:28:02;99816.38;;;26.09;37.19
7376;BME280;3728;42.266;24.944;2023-05-07T10:30:45;99813.34;;;26.07;38.06
7376;BME280;3728;42.266;24.944;2023-05-07T10:33:27;99807.41;;;26.26;38.57
7376;BME280;3728;42.266;24.944;2023-05-07T10:36:01;99810.63;;;26.11;37.76
7376;BME280;3728;42.266;24.944;2023-05-07T10:38:33;99805.34;;;26.00;37.53
7376;BME280;3728;42.266;24.944;2023-05-07T10:41:02;99800.94;;;25.72;38.04
7376;BME280;3728;42.266;24.944;2023-05-07T10:43:43;99789.31;;;25.90;39.46
7376;BME280;3728;42.266;24.944;2023-05-07T10:46:31;99798.22;;;26.24;38.55
7376;BME280;3728;42.266;24.944;2023-05-07T10:49:08;99789.38;;;27.01;36.56
7376;BME280;3728;42.266;24.944;2023-05-07T10:52:13;99788.03;;;26.86;38.30
7376;BME280;3728;42.266;24.944;2023-05-07T10:55:31;99789.59;;;26.84;36.83
7376;BME280;3728;42.266;24.944;2023-05-07T10:58:24;99783.44;;;26.50;37.37
7376;BME280;3728;42.266;24.944;2023-05-07T11:01:50;99785.88;;;27.04;36.54
7376;BME280;3728;42.266;24.944;2023-05-07T11:04:29;99776.22;;;27.07;36.73
7376;BME280;3728;42.266;24.944;2023-05-07T11:07:28;99773.34;;;27.21;36.06
7376;BME280;3728;42.266;24.944;2023-05-07T11:10:11;99775.38;;;27.44;35.98
7376;BME280;3728;42.266;24.944;2023-05-07T11:12:53;99774.59;;;27.70;35.44
7376;BME280;3728;42.266;24.944;2023-05-07T11:15:42;99764.88;;;27.76;35.74
7376;BME280;3728;42.266;24.944;2023-05-07T11:18:24;99771.44;;;27.75;35.44
7376;BME280;3728;42.266;24.944;2023-05-07T11:20:58;99774.78;;;27.83;34.85
7376;BME280;3728;42.266;24.944;2023-05-07T11:26:31;99768.66;;;28.05;34.28
7376;BME280;3728;42.266;24.944;2023-05-07T11:29:19;99773.50;;;27.91;34.36
7376;BME280;3728;42.266;24.944;2023-05-07T11:31:54;99764.44;;;27.54;36.19
7376;BME280;3728;42.266;24.944;2023-05-07T11:34:35;99760.97;;;27.80;34.94
7376;BME280;3728;42.266;24.944;2023-05-07T11:37:04;99760.50;;;27.62;34.89
7376;BME280;3728;42.266;24.944;2023-05-07T11:40:06;99761.63;;;27.88;34.20
7376;BME280;3728;42.266;24.944;2023-05-07T11:42:40;99768.94;;;28.11;35.01
7376;BME280;3728;42.266;24.944;2023-05-07T11:45:10;99761.06;;;28.00;33.08
7376;BME280;3728;42.266;24.944;2023-05-07T11:47:41;99755.34;;;28.18;32.89
7376;BME280;3728;42.266;24.944;2023-05-07T11:50:10;99768.28;;;28.26;32.33
7376;BME280;3728;42.266;24.944;2023-05-07T11:52:50;99761.44;;;27.99;32.76
7376;BME280;3728;42.266;24.944;2023-05-07T11:55:19;99760.22;;;28.03;33.14
7376;BME280;3728;42.266;24.944;2023-05-07T11:57:48;99763.13;;;28.12;33.55
7376;BME280;3728;42.266;24.944;2023-05-07T12:00:48;99752.00;;;28.53;31.98
7376;BME280;3728;42.266;24.944;2023-05-07T12:03:18;99749.84;;;28.44;32.61
7376;BME280;3728;42.266;24.944;2023-05-07T12:05:47;99748.06;;;28.58;31.85
7376;BME280;3728;42.266;24.944;2023-05-07T12:08:40;99743.44;;;28.58;32.74
7376;BME280;3728;42.266;24.944;2023-05-07T12:11:24;99748.75;;;29.01;31.68
7376;BME280;3728;42.266;24.944;2023-05-07T12:13:54;99740.00;;;29.13;31.82
7376;BME280;3728;42.266;24.944;2023-05-07T12:16:26;99741.81;;;29.00;30.57
7376;BME280;3728;42.266;24.944;2023-05-07T12:18:56;99737.41;;;29.26;29.21
7376;BME280;3728;42.266;24.944;2023-05-07T12:21:25;99730.50;;;29.25;29.99
7376;BME280;3728;42.266;24.944;2023-05-07T12:23:54;99734.75;;;28.70;31.23
7376;BME280;3728;42.266;24.944;2023-05-07T12:26:22;99734.44;;;28.84;30.87
7376;BME280;3728;42.266;24.944;2023-05-07T12:28:51;99721.75;;;28.65;30.86
7376;BME280;3728;42.266;24.944;2023-05-07T12:31:19;99720.97;;;28.45;30.86
7376;BME280;3728;42.266;24.944;2023-05-07T12:33:50;99723.31;;;28.23;31.48
7376;BME280;3728;42.266;24.944;2023-05-07T12:36:20;99720.34;;;28.18;31.94
7376;BME280;3728;42.266;24.944;2023-05-07T12:38:49;99726.63;;;28.51;31.60
7376;BME280;3728;42.266;24.944;2023-05-07T12:41:17;99724.88;;;28.64;31.32
7376;BME280;3728;42.266;24.944;2023-05-07T12:43:46;99719.72;;;28.89;30.97
7376;BME280;3728;42.266;24.944;2023-05-07T12:46:14;99711.03;;;28.97;31.28
7376;BME280;3728;42.266;24.944;2023-05-07T12:48:48;99713.63;;;29.21;30.54
7376;BME280;3728;42.266;24.944;2023-05-07T12:51:15;99708.16;;;29.24;30.43
7376;BME280;3728;42.266;24.944;2023-05-07T12:53:45;99710.09;;;29.40;30.01
7376;BME280;3728;42.266;24.944;2023-05-07T12:56:15;99704.66;;;29.07;29.73
7376;BME280;3728;42.266;24.944;2023-05-07T12:58:44;99703.72;;;28.98;29.97
7376;BME280;3728;42.266;24.944;2023-05-07T13:01:11;99702.38;;;29.06;30.07
7376;BME280;3728;42.266;24.944;2023-05-07T13:03:48;99694.28;;;28.90;30.05
7376;BME280;3728;42.266;24.944;2023-05-07T13:06:17;99693.50;;;28.89;30.59
7376;BME280;3728;42.266;24.944;2023-05-07T13:08:45;99694.16;;;28.58;30.91
7376;BME280;3728;42.266;24.944;2023-05-07T13:11:15;99691.81;;;28.40;30.27
7376;BME280;3728;42.266;24.944;2023-05-07T13:13:46;99685.19;;;28.64;30.95
7376;BME280;3728;42.266;24.944;2023-05-07T13:16:16;99689.13;;;28.95;29.29
7376;BME280;3728;42.266;24.944;2023-05-07T13:18:47;99694.41;;;29.19;29.59
7376;BME280;3728;42.266;24.944;2023-05-07T13:21:15;99694.63;;;28.92;30.64
7376;BME280;3728;42.266;24.944;2023-05-07T13:23:45;99689.06;;;29.15;30.47
7376;BME280;3728;42.266;24.944;2023-05-07T13:26:13;99689.28;;;29.40;29.66
7376;BME280;3728;42.266;24.944;2023-05-07T13:28:53;99692.38;;;29.71;29.47
7376;BME280;3728;42.266;24.944;2023-05-07T13:31:24;99683.84;;;29.72;29.43
7376;BME280;3728;42.266;24.944;2023-05-07T13:33:52;99680.56;;;29.81;29.53
7376;BME280;3728;42.266;24.944;2023-05-07T13:36:21;99684.38;;;29.84;29.59